Fischbek Airfield

DE-0271 · Hamburg, Niemcy

3 października 2022

Czas Kod Pogoda Temp. Widoczność Sufit Wiatr METAR/SPECI
03:50
V
11 °C 10 km+ - 270° 270° 8 kt METAR EDHI 030150Z AUTO 27008KT 9999 // FEW020/// SCT034/// 11/11 Q1021
03:20
V
11 °C 10 km+ 4.400 ft 270° 270° 7 kt METAR EDHI 030120Z AUTO 27007KT 9999 // FEW038/// BKN044/// BKN050/// 11/11 Q1020
02:50
V
11 °C 10 km+ 4.800 ft 270° 270° 8 kt METAR EDHI 030050Z AUTO 27008KT 9999 // FEW038/// BKN048/// 11/11 Q1020
02:20
V
11 °C 10 km+ - 270° 270° 8 kt METAR EDHI 030020Z AUTO 27008KT 9999 // FEW007/// 11/10 Q1020
01:50
M
11 °C 10 km+ 2.700 ft 280° 280° 7 kt METAR EDHI 022350Z AUTO 28007KT 9999 // FEW019/// SCT023/// BKN027/// 11/11 Q1020
01:20
V
11 °C 10 km+ - 270° 270° 7 kt METAR EDHI 022320Z AUTO 27007KT 9999 // FEW023/// SCT032/// 11/11 Q1020
00:50
V
11 °C 10 km+ 5.700 ft 280° 280° 8 kt METAR EDHI 022250Z AUTO 28008KT 9999 // FEW021/// SCT029/// BKN057/// 11/11 Q1019
00:20
V
11 °C 10 km+ - 260° 260° 7 kt METAR EDHI 022220Z AUTO 26007KT 9999 // FEW021/// SCT038/// 11/11 Q1019

2 października 2022

Czas Kod Pogoda Temp. Widoczność Sufit Wiatr METAR/SPECI
23:50
V
11 °C 10 km+ 4.900 ft 270° 270° 8 kt METAR EDHI 022150Z AUTO 27008KT 9999 // FEW025/// BKN049/// 11/11 Q1019
23:20
V
12 °C 10 km+ - 270° 270° 9 kt METAR EDHI 022120Z AUTO 27009KT 9999 // FEW022/// SCT026/// 12/12 Q1019
22:50
V
12 °C 10 km+ - 270° 270° 8 kt METAR EDHI 022050Z AUTO 27008KT 9999 // FEW024/// 12/12 Q1018
22:20
V
12 °C 10 km+ 5.400 ft 270° 270° 8 kt METAR EDHI 022020Z AUTO 27008KT 9999 // FEW020/// SCT044/// BKN054/// 12/12 Q1018
21:50
V
12 °C 10 km+ 4.200 ft 270° 270° 8 kt METAR EDHI 021950Z AUTO 27008KT 9999 // SCT022/// SCT028/// BKN042/// 12/12 Q1018
21:20
V
11 °C 10 km+ - 260° 260° 6 kt METAR EDHI 021920Z AUTO 26006KT 210V300 9999 // SCT025/// SCT078/// 11/11 Q1017
20:50
V
12 °C 10 km+ - 270° 270° 7 kt METAR EDHI 021850Z AUTO 27007KT 9999 // FEW029/// 12/12 Q1017
20:20
V
13 °C 10 km+ - 280° 280° 7 kt METAR EDHI 021820Z AUTO 28007KT 9999 // NCD 13/12 Q1017
19:50
V
13 °C 10 km+ - 290° 290° 8 kt METAR EDHI 021750Z AUTO 29008KT 9999 // NCD 13/12 Q1016
19:20
V
14 °C 10 km+ - 290° 290° 11 kt METAR EDHI 021720Z AUTO 29011KT 9999 // NCD 14/11 Q1016
18:50
V
14 °C 10 km+ - 290° 290° 11 kt METAR EDHI 021650Z AUTO 29011KT 9999 // FEW025/// 14/11 Q1015
18:20
V
14 °C 10 km+ - 290° 290° 12 kt METAR EDHI 021620Z AUTO 29012KT 9999 // FEW025/// 14/11 Q1015
17:50
V
15 °C 10 km+ - 310° 310° 13 kt METAR EDHI 021550Z AUTO 31013KT 9999 // FEW029/// 15/10 Q1015
17:20
V
15 °C 10 km+ - 310° 310° 15 kt METAR EDHI 021520Z AUTO 31015KT 9999 // FEW030/// 15/10 Q1014
16:50
V
15 °C 10 km+ - 290° 290° 13 kt METAR EDHI 021450Z AUTO 29013KT 260V320 9999 // FEW034/// 15/11 Q1014
16:20
V
15 °C 10 km+ - 290° 290° 13 kt METAR EDHI 021420Z AUTO 29013KT 9999 // FEW029/// SCT059/// 15/11 Q1014
15:50
V
16 °C 10 km+ - 290° 290° 14 kt METAR EDHI 021350Z AUTO 29014KT 9999 // FEW029/// 16/11 Q1014
15:20
V
15 °C 10 km+ - 280° 280° 13 kt METAR EDHI 021320Z AUTO 28013KT 9999 // FEW034/// 15/12 Q1013
14:50
V
15 °C 10 km+ - 280° 280° 10 kt METAR EDHI 021250Z AUTO 28010KT 9999 // FEW042/// 15/12 Q1013
14:20
V
14 °C 10 km+ 6.600 ft 280° 280° 15 kt METAR EDHI 021220Z AUTO 28015KT 9999 // FEW018/// BKN066/// 14/11 Q1013
13:50
V
14 °C 10 km+ 6.600 ft 270° 270° 14 kt METAR EDHI 021150Z AUTO 27014KT 9999 // FEW019/// SCT046/// BKN066/// 14/13 Q1013
13:20
V
15 °C 10 km+ - 260° 260° 11 kt METAR EDHI 021120Z AUTO 26011KT 9999 // FEW020/// SCT028/// 15/13 Q1013
12:50
V
15 °C 10 km+ - 260° 260° 11 kt METAR EDHI 021050Z AUTO 26011KT 9999 // FEW018/// SCT032/// 15/14 Q1012
12:20
V
14 °C 10 km+ 4.800 ft 270° 270° 9 kt METAR EDHI 021020Z AUTO 27009KT 9999 // FEW033/// SCT038/// BKN048/// 14/13 Q1012
11:50
I
13 °C 3 km 6.200 ft 270° 270° 12 kt METAR EDHI 020950Z AUTO 27012KT 7000 3000 // FEW012/// SCT032/// OVC062/// 13/12 Q1012
11:20
I
12 °C 4,7 km 1.200 ft 260° 260° 9 kt METAR EDHI 020920Z AUTO 26009KT 4700 // FEW009/// BKN012/// OVC050/// 12/12 Q1012
10:50
V
13 °C 10 km+ 4.100 ft 260° 260° 9 kt METAR EDHI 020850Z AUTO 26009KT 9999 // SCT010/// BKN041/// BKN058/// 13/13 Q1012
10:20
V
12 °C 10 km+ 6.900 ft 260° 260° 7 kt METAR EDHI 020820Z AUTO 26007KT 9999 // FEW014/// BKN069/// 12/12 Q1012
09:50
M
12 °C 9 km 2.400 ft 240° 240° 9 kt METAR EDHI 020750Z AUTO 24009KT 9000 // FEW012/// BKN024/// BKN054/// 12/12 Q1011
09:20
V
12 °C 10 km+ 7.100 ft 260° 260° 7 kt METAR EDHI 020720Z AUTO 26007KT 9999 // SCT055/// BKN071/// BKN220/// 12/12 Q1011
08:50
V
11 °C 10 km+ 13.000 ft 230° 230° 7 kt METAR EDHI 020650Z AUTO 23007KT 9999 // FEW010/// BKN130/// BKN230/// 11/11 Q1011
08:20
V
11 °C 10 km+ 4.300 ft 240° 240° 13 kt METAR EDHI 020620Z AUTO 24013KT 9999 // FEW015/// SCT032/// OVC043/// 11/11 Q1010
07:50
V
11 °C 10 km+ 18.000 ft 240° 240° 8 kt METAR EDHI 020550Z AUTO 24008KT 9999 // FEW066/// SCT080/// BKN180/// 11/11 Q1010
07:20
I
10 °C 2,6 km 10.000 ft 240° 240° 7 kt METAR EDHI 020520Z AUTO 24007KT 9999 2600 // FEW011/// SCT077/// BKN100/// 10/10 Q1010
06:50
I
10 °C 3,4 km 12.000 ft 240° 240° 4 kt METAR EDHI 020450Z AUTO 24004KT 180V300 9999 3400 // FEW078/// SCT100/// BKN120/// 10/10 Q1010
06:20
I
10 °C 2,9 km - 250° 250° 3 kt METAR EDHI 020420Z AUTO 25003KT 9999 2900 // NCD 10/10 Q1010
05:50
I
10 °C 2,6 km 6.300 ft 240° 240° 4 kt METAR EDHI 020350Z AUTO 24004KT 9999 2600 // FEW024/// SCT052/// BKN063/// 10/10 Q1010
05:20
I
10 °C 2,3 km 5.500 ft 230° 230° 5 kt METAR EDHI 020320Z AUTO 23005KT 190V250 9999 2300 // FEW015/// BKN055/// OVC066/// 10/10 Q1010
04:50
I
11 °C 2,5 km 1.700 ft 230° 230° 5 kt METAR EDHI 020250Z AUTO 23005KT 9999 2500 // FEW015/// BKN017/// BKN130/// 11/11 Q1010
04:20
I
11 °C 2,3 km 2.100 ft 260° 260° 6 kt METAR EDHI 020220Z AUTO 26006KT 9999 2300 // FEW011/// SCT014/// OVC021/// 11/11 Q1010
03:50
I
11 °C 2,3 km 4.500 ft 320° 320° 8 kt METAR EDHI 020150Z AUTO 32008KT 270V340 9999 2300 // SCT013/// BKN045/// 11/11 Q1010
03:20
I
11 °C 2,2 km - 230° 230° 10 kt METAR EDHI 020120Z AUTO 23010KT 9999 2200 // FEW042/// SCT051/// 11/11 Q1009
02:50
I
11 °C 2,2 km 3.400 ft 230° 230° 11 kt METAR EDHI 020050Z AUTO 23011KT 9999 2200 // BKN034/// BKN048/// 11/11 Q1009
02:20
I
11 °C 2,2 km 8.500 ft 230° 230° 8 kt METAR EDHI 020020Z AUTO 23008KT 9999 2200 // FEW054/// BKN085/// BKN099/// 11/11 Q1009
01:50
I
11 °C 2,2 km - 220° 220° 7 kt METAR EDHI 012350Z AUTO 22007KT 9999 2200 // FEW009/// SCT067/// 11/11 Q1009
01:20
I
11 °C 2,1 km 12.000 ft 240° 240° 8 kt METAR EDHI 012320Z AUTO 24008KT 9999 2100 // FEW010/// SCT064/// BKN120/// 11/11 Q1009
00:50
I
12 °C 2 km 10.000 ft 250° 250° 10 kt METAR EDHI 012250Z AUTO 25010KT 9999 2000 // FEW018/// SCT050/// BKN100/// 12/11 Q1008
00:20
I
12 °C 2,1 km 6.200 ft 250° 250° 13 kt METAR EDHI 012220Z AUTO 25013KT 9999 2100 // SCT046/// OVC062/// 12/12 Q1008

1 października 2022

Czas Kod Pogoda Temp. Widoczność Sufit Wiatr METAR/SPECI
23:50
I
12 °C 2,1 km - 250° 250° 12 kt METAR EDHI 012150Z AUTO 25012KT 9999 2100 // FEW068/// SCT098/// 12/12 Q1008
23:20
I
12 °C 2,2 km - 240° 240° 10 kt METAR EDHI 012120Z AUTO 24010KT 9999 2200 // FEW029/// 12/11 Q1007
22:50
I
12 °C 2,2 km - 240° 240° 11 kt METAR EDHI 012050Z AUTO 24011KT 9999 2200 // FEW030/// 12/11 Q1007
22:20
I
12 °C 2,2 km - 240° 240° 10 kt METAR EDHI 012020Z AUTO 24010KT 9999 2200 // FEW031/// 12/11 Q1007
21:50
I
12 °C 2,2 km - 240° 240° 10 kt METAR EDHI 011950Z AUTO 24010KT 9999 2200 // FEW036/// 12/12 Q1006
21:20
I
12 °C 2,2 km - 250° 250° 9 kt METAR EDHI 011920Z AUTO 25009KT 9999 2200 // FEW028/// SCT034/// 12/12 Q1006
20:50
I
12 °C 2,4 km - 230° 230° 7 kt METAR EDHI 011850Z AUTO 23007KT 9999 2400 // FEW026/// SCT030/// 12/12 Q1005
20:20
I
13 °C 2,2 km 3.100 ft 270° 270° 10 kt METAR EDHI 011820Z AUTO 27010KT 9999 2200 // FEW022/// SCT027/// BKN031/// 13/12 Q1005
19:50
I
13 °C 2,1 km 3.200 ft 250° 250° 8 kt METAR EDHI 011750Z AUTO 25008KT 9999 2100 // SCT028/// BKN032/// 13/13 Q1004
19:20
I
13 °C 1,9 km - 260° 260° 8 kt METAR EDHI 011720Z AUTO 26008KT 9999 1900 // FEW028/// SCT150/// 13/13 Q1004
18:50
L
13 °C 1,3 km - 260° 260° 9 kt METAR EDHI 011650Z AUTO 26009KT 9999 1300 R23/P2000N // FEW026/// SCT056/// 13/13 Q1003
18:20
L
14 °C 1,2 km 2.500 ft 270° 270° 12 kt METAR EDHI 011620Z AUTO 27012KT 9999 1200 R23/P2000N // SCT022/// BKN025/// BKN057/// 14/13 Q1003
17:50
L
14 °C 1,2 km 2.300 ft 240° 240° 8 kt METAR EDHI 011550Z AUTO 24008KT 9999 1200 R23/P2000N // FEW019/// BKN023/// BKN028/// 14/14 Q1002
17:20
L
14 °C 1,3 km - 250° 250° 11 kt METAR EDHI 011520Z AUTO 25011KT 9999 1300 R23/P2000N // FEW018/// SCT058/// 14/13 Q1002
16:50
L
14 °C 1,3 km - 250° 250° 11 kt METAR EDHI 011450Z AUTO 25011KT 9999 1300 R23/P2000N // FEW018/// SCT059/// 14/13 Q1001
16:20
L
13 °C 1,2 km 12.000 ft 250° 250° 9 kt METAR EDHI 011420Z AUTO 25009KT 9999 1200 R23/P2000N // FEW063/// SCT093/// BKN120/// 13/13 Q1001
15:50
L
12 °C 1,1 km 6.200 ft 250° 250° 7 kt METAR EDHI 011350Z AUTO 25007KT 8000 1100 R23/P2000N // FEW020/// OVC062/// 12/12 Q1001
15:20
L
13 °C 1,2 km 3.200 ft 280° 280° 19 - 29 kt METAR EDHI 011320Z AUTO 28019G29KT 1900 1200 R23/P2000N // FEW016/// BKN032/// OVC050/// 13/12 Q1001
14:50
L
14 °C 1,1 km 2.400 ft 250° 250° 15 kt METAR EDHI 011250Z AUTO 25015KT 9000 1100 R23/P2000N // OVC024/// 14/12 Q1000
14:20
L
16 °C 1 km 5.000 ft 250° 250° 15 kt METAR EDHI 011220Z AUTO 25015KT 220V280 9999 1000 R23/P2000N // SCT020/// BKN050/// 16/12 Q1000
13:50
L
15 °C 900 m 1.800 ft 240° 240° 16 kt METAR EDHI 011150Z AUTO 24016KT 9999 0900 R23/P2000N // FEW013/// SCT016/// BKN018/// 15/13 Q1000
13:20
L
14 °C 800 m 4.500 ft 230° 230° 15 kt METAR EDHI 011120Z AUTO 23015KT 9999 0800 R23/P2000N // FEW012/// SCT015/// BKN045/// 14/13 Q1000
12:50
L
13 °C 800 m 2.000 ft 230° 230° 12 kt METAR EDHI 011050Z AUTO 23012KT 1100 0800 R23/P2000N // SCT010/// BKN020/// OVC037/// 13/13 Q0999
12:20
M
12 °C 10 km+ 1.100 ft 220° 220° 12 kt METAR EDHI 011020Z 22012KT 9999 SCT008 OVC011 12/12 Q0999 RERA
11:50
I
11 °C 10 km+ 600 ft 230° 230° 11 kt METAR EDHI 010950Z 23011KT 9999 -RA OVC006 11/11 Q0999
11:20
I
11 °C 6 km 600 ft 210° 210° 11 kt METAR EDHI 010920Z 21011KT 180V240 6000 RA OVC006 11/11 Q0999
10:50
I
10 °C 6 km 700 ft 200° 200° 12 kt METAR EDHI 010850Z 20012KT 6000 RA OVC007 10/10 Q0999
10:20
I
10 °C 9 km 900 ft 190° 190° 10 kt METAR EDHI 010820Z 19010KT 160V220 9000 RA BKN009 OVC015 10/10 Q0999
09:50
I
10 °C 2,6 km 900 ft 190° 190° 9 kt METAR EDHI 010750Z 19009KT 150V230 2600 RA BKN009 BKN015 OVC028 10/10 Q0999
09:20
M
10 °C 6 km 1.200 ft 190° 190° 12 kt METAR EDHI 010720Z 19012KT 160V220 6000 RA BKN012 OVC017 10/10 Q0999
08:50
I
10 °C 2,1 km 1.800 ft 190° 190° 10 kt METAR EDHI 010650Z 19010KT 150V220 9999 2100 RA FEW015 OVC018 10/10 Q1000
08:20
M
10 °C 9 km 2.100 ft 190° 190° 9 kt METAR EDHI 010620Z 19009KT 130V220 9000 RA FEW016 BKN021 10/10 Q1000
07:50
I
10 °C 3,1 km 3.200 ft 180° 180° 9 kt METAR EDHI 010550Z AUTO 18009KT 140V240 9999 3100 // FEW026/// BKN032/// OVC046/// 10/09 Q1000
07:20
V
10 °C 10 km+ 4.500 ft 150° 150° 7 kt METAR EDHI 010520Z AUTO 15007KT 120V220 9999 // SCT036/// OVC045/// 10/09 Q1001
06:50
V
10 °C 10 km+ 5.300 ft 150° 150° 7 kt METAR EDHI 010450Z AUTO 15007KT 110V210 9999 // BKN053/// OVC066/// 10/09 Q1001
06:20
V
10 °C 10 km+ 5.200 ft 180° 180° 7 kt METAR EDHI 010420Z AUTO 18007KT 140V210 9999 // FEW042/// BKN052/// OVC064/// 10/08 Q1002
05:50
V
11 °C 10 km+ 6.600 ft 190° 190° 11 kt METAR EDHI 010350Z AUTO 19011KT 160V220 9999 // FEW039/// BKN066/// OVC099/// 11/07 Q1002
05:20
V
11 °C 10 km+ 11.000 ft 190° 190° 7 kt METAR EDHI 010320Z AUTO 19007KT 140V220 9999 // FEW056/// OVC110/// 11/07 Q1003
04:50
V
11 °C 10 km+ 12.000 ft 180° 180° 8 kt METAR EDHI 010250Z AUTO 18008KT 130V220 9999 // FEW054/// BKN120/// OVC140/// 11/07 Q1003
04:20
V
11 °C 10 km+ 15.000 ft 170° 170° 7 kt METAR EDHI 010220Z AUTO 17007KT 140V210 9999 // BKN150/// OVC180/// 11/07 Q1003
03:50
V
11 °C 10 km+ 18.000 ft 170° 170° 6 kt METAR EDHI 010150Z AUTO 17006KT 120V210 9999 // OVC180/// 11/07 Q1004
03:20
V
11 °C 10 km+ 19.000 ft 180° 180° 6 kt METAR EDHI 010120Z AUTO 18006KT 140V210 9999 // OVC190/// 11/07 Q1004
02:50
V
11 °C 10 km+ 21.000 ft 190° 190° 8 kt METAR EDHI 010050Z AUTO 19008KT 160V220 9999 // BKN210/// 11/07 Q1005
02:20
V
11 °C 10 km+ 23.000 ft 190° 190° 8 kt METAR EDHI 010020Z AUTO 19008KT 160V230 9999 // BKN230/// 11/06 Q1005
01:50
V
11 °C 10 km+ 23.000 ft 190° 190° 7 kt METAR EDHI 302350Z AUTO 19007KT 9999 // FEW066/// OVC230/// 11/06 Q1005
01:20
V
11 °C 10 km+ 24.000 ft 180° 180° 5 kt METAR EDHI 302320Z AUTO 18005KT 150V220 9999 // FEW057/// BKN240/// 11/07 Q1006
00:50
V
11 °C 10 km+ 6.600 ft 170° 170° 4 kt METAR EDHI 302250Z AUTO 17004KT 130V230 9999 // FEW058/// BKN066/// 11/07 Q1006
00:20
V
11 °C 10 km+ - 170° 170° 4 kt METAR EDHI 302220Z AUTO 17004KT 130V230 9999 // SCT066/// 11/07 Q1006

30 września 2022

Czas Kod Pogoda Temp. Widoczność Sufit Wiatr METAR/SPECI
23:50
V
10 °C 10 km+ - 160° 160° 4 kt METAR EDHI 302150Z AUTO 16004KT 120V200 9999 // NCD 10/06 Q1007
23:20
V
10 °C 10 km+ - 170° 170° 4 kt METAR EDHI 302120Z AUTO 17004KT 140V200 9999 // NCD 10/06 Q1007
22:50
V
10 °C 10 km+ - 170° 170° 3 kt METAR EDHI 302050Z AUTO 17003KT 120V240 9999 // NCD 10/07 Q1007
22:20
V
9 °C 10 km+ - 150° 150° 3 kt METAR EDHI 302020Z AUTO 15003KT 120V190 9999 // NCD 09/06 Q1007
21:50
V
10 °C 10 km+ - 160° 160° 3 kt METAR EDHI 301950Z AUTO 16003KT 120V220 9999 // NCD 10/07 Q1008
21:20
V
11 °C 10 km+ - 160° 160° 4 kt METAR EDHI 301920Z AUTO 16004KT 110V210 9999 // NCD 11/07 Q1008
20:50
V
10 °C 10 km+ - 150° 150° 3 kt METAR EDHI 301850Z AUTO 15003KT 110V190 9999 // NCD 10/07 Q1008
20:20
V
10 °C 10 km+ - 160° 160° 4 kt METAR EDHI 301820Z AUTO 16004KT 120V200 9999 // NCD 10/07 Q1008
19:50
V
11 °C 10 km+ - 170° 170° 4 kt METAR EDHI 301750Z AUTO 17004KT 130V210 9999 // NCD 11/07 Q1008
19:20
V
12 °C 10 km+ - 170° 170° 4 kt METAR EDHI 301720Z 17004KT 120V220 CAVOK 12/08 Q1008
Starsze dane

My i osoby trzecie śledzimy twoje zachowanie w internecie na naszej stronie za pomocą plików cookie. Jeśli kontynuujesz, zakładamy, że zgadzasz się z naszą polityką plików cookie. Dowiedz się więcej